Time;durP1;ratioP1;P1;durP2;ratioP2;P2;SDS_P1;SDS_P2;PMS_P1;PMS_P2;Temp;Humidity;BMP_temperature;BMP_pressure;BME280_temperature;BME280_humidity;BME280_pressure;Samples;Min_cycle;Max_cycle;Signal;HPM_P1;HPM_P2
2022/05/24 00:02:19;;;;;;;79.82;51.00;;;;;;;13.25;100.00;100115.38;5035076;28;20041;-85
2022/05/24 00:04:48;;;;;;;77.72;48.83;;;;;;;13.30;100.00;100113.22;5035146;28;20017;-87
2022/05/24 00:07:13;;;;;;;77.90;48.58;;;;;;;13.18;100.00;100098.69;5053058;28;20087;-84
2022/05/24 00:09:38;;;;;;;74.40;48.78;;;;;;;13.34;100.00;100117.19;5052923;28;20472;-85
2022/05/24 00:12:04;;;;;;;72.65;47.33;;;;;;;12.59;100.00;100004.34;5053511;28;20052;-85
2022/05/24 00:17:17;;;;;;;68.15;42.58;;;;;;;12.81;100.00;100052.56;5052764;28;20060;-85
2022/05/24 00:19:43;;;;;;;65.43;41.17;;;;;;;12.72;100.00;100036.97;5052681;28;20029;-85
2022/05/24 00:22:09;;;;;;;62.15;39.97;;;;;;;12.97;100.00;100103.91;5052500;28;20029;-86
2022/05/24 00:24:34;;;;;;;59.10;38.65;;;;;;;12.49;100.00;100041.50;5052660;28;20487;-85
2022/05/24 00:27:09;;;;;;;56.63;36.90;;;;;;;11.87;100.00;99949.97;5052556;28;20029;-85
2022/05/24 00:29:40;;;;;;;61.50;34.17;;;;;;;11.23;100.00;99872.47;5052600;28;20028;-85
2022/05/24 00:32:11;;;;;;;52.60;34.00;;;;;;;11.43;100.00;99899.28;5052581;28;20057;-85
2022/05/24 00:34:36;;;;;;;50.58;32.53;;;;;;;11.41;100.00;99914.94;5053240;28;20113;-85
2022/05/24 00:37:23;;;;;;;49.47;30.92;;;;;;;12.14;100.00;100034.88;5052430;28;20457;-85
2022/05/24 00:39:51;;;;;;;45.28;29.65;;;;;;;11.99;100.00;100024.00;5052475;28;20028;-85
2022/05/24 00:42:24;;;;;;;47.33;30.83;;;;;;;11.50;100.00;99954.69;5052300;28;20365;-85
2022/05/24 00:45:10;;;;;;;45.40;28.02;;;;;;;11.47;100.00;99960.94;5052488;28;20108;-85
2022/05/24 00:48:23;;;;;;;40.30;26.95;;;;;;;10.94;100.00;99887.72;5052432;28;20112;-85
2022/05/24 00:50:52;;;;;;;43.80;27.08;;;;;;;12.21;100.00;100097.31;5036122;28;20045;-86
2022/05/24 00:53:22;;;;;;;47.20;26.33;;;;;;;12.21;100.00;100115.44;5052277;28;20465;-85
2022/05/24 00:56:11;;;;;;;44.45;26.27;;;;;;;12.18;100.00;100108.72;5052105;28;20021;-85
2022/05/24 00:58:51;;;;;;;40.33;25.75;;;;;;;12.01;100.00;100091.16;5052177;28;20029;-85
2022/05/24 01:01:39;;;;;;;38.20;25.33;;;;;;;12.11;100.00;100114.53;5051736;28;20037;-85
2022/05/24 01:04:22;;;;;;;38.17;23.77;;;;;;;11.81;100.00;100071.25;5052220;28;20048;-85
2022/05/24 01:07:13;;;;;;;36.88;23.83;;;;;;;10.91;100.00;99932.69;5053312;28;20391;-85
2022/05/24 01:10:15;;;;;;;38.47;22.80;;;;;;;11.96;100.00;100103.66;5056029;28;20112;-84
2022/05/24 01:13:08;;;;;;;38.25;23.88;;;;;;;10.62;100.00;99893.66;5056118;28;20539;-84
2022/05/24 01:15:36;;;;;;;36.00;21.38;;;;;;;10.78;100.00;99923.44;5055862;28;20040;-85
2022/05/24 01:18:47;;;;;;;39.85;21.67;;;;;;;11.82;100.00;100104.75;5051173;28;20045;-85
2022/05/24 01:21:15;;;;;;;40.85;22.13;;;;;;;10.53;100.00;99903.88;5056083;28;20556;-85
2022/05/24 01:24:24;;;;;;;35.47;20.92;;;;;;;11.54;100.00;100075.06;5056228;28;20144;-85
2022/05/24 01:26:57;;;;;;;34.10;18.80;;;;;;;10.44;100.00;99892.50;5056102;28;20033;-85
2022/05/24 01:29:24;;;;;;;31.52;19.65;;;;;;;11.69;100.00;100088.50;5055789;28;20036;-85
2022/05/24 01:37:20;;;;;;;31.85;19.48;;;;;;;11.62;100.00;100113.25;5055810;28;20082;-85
2022/05/24 01:40:07;;;;;;;30.10;17.73;;;;;;;11.56;100.00;100109.34;5055478;28;20108;-85
2022/05/24 01:42:42;;;;;;;28.65;17.25;;;;;;;11.06;100.00;100033.19;5037751;28;20025;-85
2022/05/24 01:45:26;;;;;;;38.17;16.88;;;;;;;10.74;100.00;99987.41;5055709;28;20020;-85
2022/05/24 01:48:14;;;;;;;26.95;14.98;;;;;;;11.11;100.00;100060.31;5055591;28;20102;-85
2022/05/24 01:50:49;;;;;;;25.95;14.95;;;;;;;10.48;100.00;99966.16;5039897;28;20400;-85
2022/05/24 01:53:36;;;;;;;31.70;14.98;;;;;;;11.49;100.00;100128.88;5055466;28;20032;-84
2022/05/24 01:56:07;;;;;;;27.65;13.80;;;;;;;10.52;100.00;99974.50;5037190;28;20120;-85
2022/05/24 01:58:50;;;;;;;30.63;13.33;;;;;;;10.77;100.00;100018.16;5055503;28;20033;-84
2022/05/24 02:01:30;;;;;;;25.85;13.27;;;;;;;11.40;100.00;100114.06;5055354;28;20276;-84
2022/05/24 02:03:55;;;;;;;28.73;12.52;;;;;;;10.39;99.33;99956.53;5020114;28;20443;-85
2022/05/24 02:06:28;;;;;;;22.50;11.90;;;;;;;10.97;99.49;100059.72;5055091;28;20078;-84
2022/05/24 02:08:54;;;;;;;20.05;10.98;;;;;;;10.63;100.00;100006.31;5055201;28;20052;-85
2022/05/24 02:11:24;;;;;;;22.63;11.25;;;;;;;11.22;99.63;100115.53;5054947;28;20091;-85
2022/05/24 02:13:53;;;;;;;26.88;11.90;;;;;;;11.20;99.81;100103.50;5055183;28;20055;-85
2022/05/24 02:16:22;;;;;;;20.60;11.20;;;;;;;10.47;99.32;100003.25;5059248;28;20045;-84
2022/05/24 02:21:38;;;;;;;24.05;10.32;;;;;;;10.06;99.45;99946.97;5075213;28;20040;-85
2022/05/24 02:24:21;;;;;;;20.73;10.57;;;;;;;10.23;99.82;99977.53;5074797;28;20456;-85
2022/05/24 02:26:47;;;;;;;21.38;10.23;;;;;;;10.61;99.59;100036.56;5074959;28;20024;-84
2022/05/24 02:29:13;;;;;;;19.33;10.07;;;;;;;10.40;99.08;100002.06;5074987;28;20028;-85
2022/05/24 02:31:42;;;;;;;20.60;10.10;;;;;;;10.60;98.82;100016.03;5074765;28;20021;-85
2022/05/24 02:34:11;;;;;;;20.77;8.93;;;;;;;11.28;98.58;100113.25;5074404;28;20025;-84
2022/05/24 02:36:37;;;;;;;19.23;8.73;;;;;;;11.09;98.07;100079.44;5074489;28;20103;-85
2022/05/24 02:39:03;;;;;;;16.33;7.95;;;;;;;10.87;97.84;100044.09;5074850;28;20120;-84
2022/05/24 02:41:28;;;;;;;16.73;7.95;;;;;;;11.32;97.34;100119.03;5074836;28;20548;-85
2022/05/24 02:43:59;;;;;;;16.17;7.55;;;;;;;11.21;96.76;100106.94;5056230;28;20040;-85
2022/05/24 02:46:31;;;;;;;16.15;8.25;;;;;;;11.06;97.34;100087.44;5074501;28;20025;-86
2022/05/24 02:48:56;;;;;;;15.35;6.45;;;;;;;10.20;96.16;99964.00;5074366;28;20032;-84
2022/05/24 02:51:37;;;;;;;13.75;6.38;;;;;;;11.08;96.00;100114.78;5074105;28;20468;-85
2022/05/24 02:54:09;;;;;;;15.35;6.38;;;;;;;9.91;96.24;99930.88;5074363;28;20033;-86
2022/05/24 02:56:35;;;;;;;14.45;6.43;;;;;;;9.91;96.17;99917.97;5056209;28;20078;-85
2022/05/24 02:59:00;;;;;;;13.73;5.85;;;;;;;10.07;95.95;99936.53;5074084;28;20071;-86
2022/05/24 03:01:32;;;;;;;14.90;5.78;;;;;;;10.03;95.18;99919.66;5074092;28;20433;-84
2022/05/24 03:04:30;;;;;;;14.02;5.97;;;;;;;9.98;95.33;99906.28;5074020;28;20051;-85
2022/05/24 03:09:40;;;;;;;12.65;5.45;;;;;;;11.39;95.20;100115.84;5074111;28;20067;-85
2022/05/24 03:15:08;;;;;;;13.50;5.55;;;;;;;10.73;94.71;100024.50;5074139;28;20050;-84
2022/05/24 03:17:39;;;;;;;16.20;6.18;;;;;;;10.52;94.89;99992.56;5060125;28;20056;-84
2022/05/24 03:20:17;;;;;;;18.45;5.57;;;;;;;10.12;94.26;99940.53;5053639;28;20033;-85
2022/05/24 03:22:52;;;;;;;18.92;5.72;;;;;;;10.83;94.55;100050.47;5053692;28;20035;-84
2022/05/24 03:25:17;;;;;;;14.23;5.95;;;;;;;10.87;94.74;100054.44;5053984;28;20032;-84
2022/05/24 03:27:42;;;;;;;14.95;5.65;;;;;;;10.74;94.88;100040.84;5035996;28;20029;-84
2022/05/24 03:30:08;;;;;;;14.38;6.13;;;;;;;10.63;95.08;100026.97;5053352;28;20032;-85
2022/05/24 03:32:43;;;;;;;15.38;6.38;;;;;;;11.18;95.30;100117.50;5053502;28;20028;-85
2022/05/24 03:35:18;;;;;;;15.63;5.97;;;;;;;10.05;95.10;99946.16;5053318;28;20048;-84
2022/05/24 03:38:28;;;;;;;18.13;6.53;;;;;;;11.26;95.17;100137.59;5053522;28;20025;-85
2022/05/24 03:40:58;;;;;;;18.17;7.05;;;;;;;10.10;95.05;99950.16;5053316;28;20033;-84
2022/05/24 03:43:26;;;;;;;17.60;6.65;;;;;;;11.32;95.63;100135.38;5053227;28;20377;-84
2022/05/24 03:46:04;;;;;;;17.35;6.40;;;;;;;10.25;95.00;99952.44;5035317;28;20047;-84
2022/05/24 03:48:30;;;;;;;12.88;6.25;;;;;;;10.50;94.98;99999.59;5053274;28;20029;-84
2022/05/24 03:50:56;;;;;;;15.25;7.07;;;;;;;11.13;95.24;100089.44;5053368;28;20087;-84
2022/05/24 03:53:22;;;;;;;16.70;7.07;;;;;;;10.49;94.86;99978.13;5053124;28;20040;-85
2022/05/24 03:55:47;;;;;;;18.50;6.60;;;;;;;11.20;94.73;100094.94;5035271;28;20033;-84
2022/05/24 03:58:19;;;;;;;18.25;7.43;;;;;;;11.31;94.79;100125.97;5053114;28;20116;-84
2022/05/24 04:00:45;;;;;;;17.70;7.35;;;;;;;11.28;94.49;100120.19;5053180;28;20481;-85
2022/05/24 04:03:11;;;;;;;17.95;7.80;;;;;;;11.08;93.86;100108.81;5053086;28;20021;-84
2022/05/24 04:05:37;;;;;;;19.85;8.57;;;;;;;11.38;94.33;100150.38;5053159;28;20032;-84
2022/05/24 04:08:04;;;;;;;20.23;8.27;;;;;;;11.53;94.28;100166.50;5052963;28;20019;-83
2022/05/24 04:10:31;;;;;;;19.73;8.57;;;;;;;11.54;94.34;100177.66;5052868;28;20111;-84
2022/05/24 04:12:56;;;;;;;18.02;8.65;;;;;;;11.38;94.34;100162.50;5052811;28;20024;-84
2022/05/24 04:15:23;;;;;;;21.30;8.82;;;;;;;11.28;94.58;100143.47;5034797;28;20066;-84
2022/05/24 04:17:49;;;;;;;19.33;8.93;;;;;;;11.54;94.05;100188.81;5066014;28;20048;-84
2022/05/24 04:20:15;;;;;;;16.20;9.25;;;;;;;11.37;94.07;100169.44;5054758;28;20395;-85
2022/05/24 04:22:41;;;;;;;17.80;9.45;;;;;;;11.38;93.63;100163.31;5054210;28;20033;-84
2022/05/24 04:25:07;;;;;;;21.45;9.85;;;;;;;11.59;94.20;100184.09;5072807;28;20360;-84
2022/05/24 04:27:33;;;;;;;19.67;9.18;;;;;;;11.59;93.97;100173.75;5072653;28;20024;-84
2022/05/24 04:29:59;;;;;;;20.83;9.38;;;;;;;11.36;94.06;100128.19;5072573;28;20029;-84
2022/05/24 04:32:24;;;;;;;17.67;8.98;;;;;;;11.49;94.22;100147.78;5072827;28;20024;-84
2022/05/24 04:34:50;;;;;;;18.17;8.95;;;;;;;11.46;94.55;100158.38;5072455;28;20037;-83
2022/05/24 04:37:15;;;;;;;16.05;8.52;;;;;;;11.24;94.23;100129.13;5072685;28;20029;-84
2022/05/24 04:39:40;;;;;;;18.20;9.65;;;;;;;11.36;94.40;100172.97;5072323;28;20029;-84
2022/05/24 04:42:18;;;;;;;17.75;9.25;;;;;;;10.85;94.50;100113.16;5072000;28;20036;-84
2022/05/24 04:44:46;;;;;;;17.25;9.80;;;;;;;11.42;95.17;100207.88;5072441;28;20063;-84
2022/05/24 04:47:14;;;;;;;18.13;9.10;;;;;;;11.12;94.40;100159.34;5072681;28;20039;-84
2022/05/24 04:49:49;;;;;;;18.92;10.02;;;;;;;11.45;94.36;100198.09;5054049;28;20476;-83
2022/05/24 04:52:15;;;;;;;17.33;8.80;;;;;;;11.46;94.52;100191.16;5072546;28;20031;-84
2022/05/24 04:54:42;;;;;;;18.27;9.20;;;;;;;11.46;94.32;100196.34;5072333;28;20522;-83
2022/05/24 04:57:08;;;;;;;20.70;9.57;;;;;;;11.14;94.98;100155.69;5072420;28;20039;-84
2022/05/24 04:59:34;;;;;;;15.85;8.57;;;;;;;11.10;94.26;100156.00;5072197;28;20028;-84
2022/05/24 05:02:00;;;;;;;20.25;8.30;;;;;;;11.11;94.46;100153.34;5054371;28;20017;-83
2022/05/24 05:04:26;;;;;;;20.95;8.82;;;;;;;11.19;94.51;100187.16;5072296;28;20476;-83
2022/05/24 05:06:52;;;;;;;16.50;8.13;;;;;;;10.72;94.12;100115.84;5071870;28;20027;-83
2022/05/24 05:09:17;;;;;;;15.95;7.22;;;;;;;11.43;94.54;100238.78;5072303;28;20101;-84
2022/05/24 05:11:43;;;;;;;16.30;7.72;;;;;;;11.10;93.86;100179.28;5072341;28;20028;-84
2022/05/24 05:14:09;;;;;;;18.27;7.43;;;;;;;11.24;93.62;100199.75;5072052;28;20032;-84
2022/05/24 05:16:36;;;;;;;17.70;7.47;;;;;;;11.34;92.92;100215.38;5066883;28;20568;-87
2022/05/24 05:19:03;;;;;;;19.00;7.15;;;;;;;11.34;93.20;100228.31;5051971;28;20056;-84
2022/05/24 05:21:31;;;;;;;19.08;6.57;;;;;;;11.40;93.54;100241.56;5052012;28;20037;-84
2022/05/24 05:23:57;;;;;;;17.55;6.88;;;;;;;11.20;92.98;100206.88;5052108;28;20055;-83
2022/05/24 05:26:22;;;;;;;19.67;6.60;;;;;;;11.52;92.82;100260.53;5052241;28;20025;-84
2022/05/24 05:28:47;;;;;;;14.07;6.70;;;;;;;11.30;92.84;100219.94;5052155;28;20495;-84
2022/05/24 05:31:27;;;;;;;13.70;6.40;;;;;;;11.60;92.91;100239.22;5051899;28;20485;-84
2022/05/24 05:33:55;;;;;;;15.88;6.35;;;;;;;11.24;91.98;100173.91;5051925;28;20025;-84
2022/05/24 05:36:21;;;;;;;14.02;5.95;;;;;;;11.47;92.39;100218.66;5051816;28;20025;-84
2022/05/24 05:38:47;;;;;;;15.50;5.93;;;;;;;11.48;91.27;100223.72;5051927;28;20465;-82
2022/05/24 05:41:29;;;;;;;12.85;5.68;;;;;;;10.59;91.05;100079.75;5051915;28;20029;-85
2022/05/24 05:43:57;;;;;;;11.60;5.78;;;;;;;11.38;91.80;100191.75;5051852;28;20035;-84
2022/05/24 05:46:28;;;;;;;27.85;6.47;;;;;;;11.54;91.50;100219.84;5051916;28;20029;-85
2022/05/24 05:48:55;;;;;;;13.15;5.85;;;;;;;11.66;91.49;100238.78;5051786;28;20029;-84
2022/05/24 05:51:21;;;;;;;17.45;5.97;;;;;;;11.69;91.48;100247.09;5033254;28;20044;-84
2022/05/24 05:53:47;;;;;;;14.25;5.40;;;;;;;11.48;91.37;100203.03;5052900;28;20091;-84
2022/05/24 05:56:21;;;;;;;16.50;5.53;;;;;;;11.63;90.07;100213.16;5055344;28;20029;-84
2022/05/24 05:58:48;;;;;;;19.52;5.82;;;;;;;11.71;89.92;100223.75;5055562;28;20052;-85
2022/05/24 06:01:20;;;;;;;19.08;5.78;;;;;;;11.77;88.70;100234.41;5036614;28;20033;-84
2022/05/24 06:03:46;;;;;;;13.55;5.40;;;;;;;11.68;88.42;100231.72;5056076;28;20091;-86
2022/05/24 06:06:20;;;;;;;12.52;4.95;;;;;;;12.00;88.12;100281.03;5055301;28;20427;-84
2022/05/24 06:08:45;;;;;;;15.90;4.75;;;;;;;12.11;87.71;100295.72;5055111;28;20100;-84
2022/05/24 06:11:19;;;;;;;12.82;5.00;;;;;;;12.04;87.99;100282.41;5055072;28;20048;-88
2022/05/24 06:13:44;;;;;;;15.55;4.63;;;;;;;11.22;87.63;100142.19;5055053;28;20083;-84
2022/05/24 06:16:10;;;;;;;11.00;4.70;;;;;;;12.44;87.98;100305.19;5055088;28;20025;-85
2022/05/24 06:18:37;;;;;;;11.55;4.10;;;;;;;12.84;85.43;100284.69;5065370;28;20113;-84
2022/05/24 06:21:03;;;;;;;16.90;4.82;;;;;;;13.54;81.93;100301.41;5056959;28;20545;-84
2022/05/24 06:23:28;;;;;;;12.18;4.20;;;;;;;12.40;80.47;100096.66;5074424;28;20016;-83
2022/05/24 06:25:54;;;;;;;13.32;4.32;;;;;;;13.67;78.49;100227.63;5074801;28;20544;-85
2022/05/24 06:28:28;;;;;;;13.70;4.93;;;;;;;13.71;76.69;100107.03;5075168;28;20017;-86
2022/05/24 06:30:54;;;;;;;15.65;4.95;;;;;;;15.90;71.94;100295.19;5075219;28;20464;-82
2022/05/24 06:33:19;;;;;;;10.00;4.30;;;;;;;16.79;68.76;100298.78;5074678;28;20024;-81
2022/05/24 06:35:45;;;;;;;13.45;4.95;;;;;;;17.17;65.23;100275.94;5074784;28;20020;-83
2022/05/24 06:38:10;;;;;;;11.32;5.30;;;;;;;17.92;63.02;100279.66;5074451;28;20085;-83
2022/05/24 06:40:36;;;;;;;14.02;5.72;;;;;;;19.41;57.84;100296.19;5074741;28;20104;-84
2022/05/24 06:43:02;;;;;;;8.68;4.50;;;;;;;20.26;54.60;100278.88;5074702;28;20062;-86
2022/05/24 06:45:29;;;;;;;8.82;4.82;;;;;;;20.70;51.56;100243.34;5074560;28;20032;-83
2022/05/24 06:47:54;;;;;;;14.00;4.50;;;;;;;21.28;50.25;100310.97;5074384;28;20107;-83
2022/05/24 06:50:20;;;;;;;11.00;3.95;;;;;;;21.11;49.60;100312.88;5074562;28;20063;-83
2022/05/24 06:52:52;;;;;;;10.40;4.15;;;;;;;20.83;51.08;100317.84;5074376;28;20032;-82
2022/05/24 06:55:17;;;;;;;9.25;4.13;;;;;;;20.31;51.79;100318.50;5074438;28;20038;-84
2022/05/24 06:57:43;;;;;;;9.15;3.60;;;;;;;20.12;51.41;100305.81;5074280;28;20024;-82
2022/05/24 07:03:11;;;;;;;8.10;3.65;;;;;;;18.69;54.73;100334.47;5074488;28;20146;-82
2022/05/24 07:05:37;;;;;;;11.45;3.83;;;;;;;17.89;57.27;100340.03;5073625;28;20036;-82
2022/05/24 07:08:03;;;;;;;10.27;3.65;;;;;;;18.44;56.53;100357.09;5073861;28;20021;-82
2022/05/24 07:10:30;;;;;;;12.27;3.42;;;;;;;17.86;57.67;100348.19;5074086;28;20025;-82
2022/05/24 07:13:08;;;;;;;6.72;3.30;;;;;;;18.13;58.12;100328.88;5073965;28;20113;-84
2022/05/24 07:15:34;;;;;;;9.30;3.33;;;;;;;18.40;55.77;100335.69;5073807;28;20039;-84
2022/05/24 07:18:02;;;;;;;10.65;4.05;;;;;;;18.18;57.03;100365.81;5055590;28;20452;-82
2022/05/24 07:20:28;;;;;;;10.02;4.00;;;;;;;17.72;57.77;100364.44;5055832;28;20404;-84
2022/05/24 07:23:20;;;;;;;10.70;4.72;;;;;;;16.86;58.78;100247.66;5073615;28;20035;-81
2022/05/24 07:25:47;;;;;;;11.73;4.90;;;;;;;18.25;56.19;100345.09;5073794;28;20221;-80
2022/05/24 07:28:18;;;;;;;9.30;5.07;;;;;;;18.12;57.21;100366.44;5073549;28;20103;-83
2022/05/24 07:30:44;;;;;;;7.85;4.38;;;;;;;17.88;59.00;100374.97;5073632;28;20021;-83
2022/05/24 07:33:10;;;;;;;10.88;5.18;;;;;;;17.43;59.50;100336.81;5055393;28;20384;-84
2022/05/24 07:35:37;;;;;;;13.55;5.07;;;;;;;17.73;60.95;100371.31;5073704;28;20082;-88
2022/05/24 07:38:06;;;;;;;14.77;5.97;;;;;;;17.59;58.93;100380.47;5055744;28;20047;-82
2022/05/24 07:46:06;;;;;;;8.68;6.60;;;;;;;16.27;62.79;100381.94;5073647;28;20392;-82
2022/05/24 07:48:34;;;;;;;11.23;7.30;;;;;;;16.27;62.45;100368.09;5073445;28;20063;-82
2022/05/24 07:50:59;;;;;;;9.15;6.93;;;;;;;16.75;62.61;100385.28;5054866;28;20059;-81
2022/05/24 07:53:25;;;;;;;8.98;6.60;;;;;;;16.63;61.78;100335.13;5073081;28;20021;-82
2022/05/24 07:55:51;;;;;;;9.60;7.10;;;;;;;16.44;62.25;100388.19;5073068;28;20078;-81
2022/05/24 07:58:16;;;;;;;11.27;6.80;;;;;;;15.86;63.71;100375.38;5072892;28;20172;-80
2022/05/24 08:00:42;;;;;;;8.68;6.43;;;;;;;16.13;63.05;100387.63;5073348;28;20115;-80
2022/05/24 08:03:07;;;;;;;9.40;6.53;;;;;;;16.21;62.15;100360.84;5073296;28;20348;-84
2022/05/24 08:05:35;;;;;;;8.70;7.03;;;;;;;16.27;62.08;100384.53;5055068;28;20048;-82
2022/05/24 08:08:04;;;;;;;12.20;7.15;;;;;;;15.74;62.87;100340.06;5073100;28;20082;-83
2022/05/24 08:10:30;;;;;;;11.80;7.82;;;;;;;15.67;64.02;100397.06;5072620;28;20020;-82
2022/05/24 08:12:57;;;;;;;9.70;6.80;;;;;;;15.37;65.43;100400.63;5073169;28;20103;-83
2022/05/24 08:15:23;;;;;;;9.70;6.88;;;;;;;15.20;65.40;100378.72;5073065;28;20067;-81
2022/05/24 08:17:50;;;;;;;10.13;7.72;;;;;;;15.46;65.47;100396.38;5072079;28;20025;-80
2022/05/24 08:20:16;;;;;;;13.30;6.70;;;;;;;15.44;64.02;100403.53;5072736;28;20028;-83
2022/05/24 08:22:42;;;;;;;8.27;5.57;;;;;;;15.40;64.53;100402.94;5072599;28;20032;-77
2022/05/24 08:25:09;;;;;;;9.77;6.45;;;;;;;15.62;65.83;100414.06;5072573;28;20064;-79
2022/05/24 08:27:34;;;;;;;9.10;5.47;;;;;;;16.02;63.75;100413.81;5072332;28;20451;-79
2022/05/24 08:30:00;;;;;;;9.93;5.65;;;;;;;16.12;64.00;100369.53;5072729;28;20107;-78
2022/05/24 08:32:26;;;;;;;9.73;5.90;;;;;;;16.85;63.30;100407.72;5072605;28;20033;-80
2022/05/24 08:34:52;;;;;;;10.13;5.45;;;;;;;17.29;62.14;100406.97;5072714;28;20024;-79
2022/05/24 08:37:18;;;;;;;9.38;5.80;;;;;;;17.51;59.99;100388.25;5072615;28;20025;-81
2022/05/24 08:39:44;;;;;;;7.32;5.28;;;;;;;17.72;56.71;100427.94;5072284;28;20468;-79
2022/05/24 08:42:23;;;;;;;8.13;5.63;;;;;;;17.31;57.27;100426.75;5072437;28;20036;-79
2022/05/24 08:50:45;;;;;;;11.68;7.43;;;;;;;16.21;59.79;100445.03;5072713;28;20042;-78
2022/05/24 08:53:16;;;;;;;11.38;6.72;;;;;;;15.90;63.02;100454.03;5072376;28;20437;-79
2022/05/24 08:55:43;;;;;;;11.02;7.18;;;;;;;15.46;66.29;100464.88;5072413;28;20035;-78
2022/05/24 08:58:14;;;;;;;11.88;7.00;;;;;;;15.04;68.04;100455.63;5072364;28;20035;-76
2022/05/24 09:00:41;;;;;;;12.70;7.20;;;;;;;14.80;69.14;100430.81;5072266;28;20024;-78
2022/05/24 09:03:08;;;;;;;12.82;6.65;;;;;;;15.11;69.81;100465.38;5072289;28;20028;-79
2022/05/24 09:05:57;;;;;;;10.40;6.78;;;;;;;15.30;67.70;100477.59;5072339;28;20039;-78
2022/05/24 09:08:44;;;;;;;8.98;6.53;;;;;;;15.41;67.16;100485.25;5072089;28;20028;-79
2022/05/24 09:11:31;;;;;;;10.65;6.80;;;;;;;15.50;66.55;100427.19;5072324;28;20032;-79
2022/05/24 09:14:24;;;;;;;9.52;6.70;;;;;;;16.41;65.08;100486.66;5072457;28;20021;-79
2022/05/24 09:17:08;;;;;;;10.20;6.80;;;;;;;16.70;63.22;100489.19;5072534;28;20032;-80
2022/05/24 09:19:47;;;;;;;9.02;6.22;;;;;;;16.75;61.08;100492.19;5072069;28;20080;-82
2022/05/24 09:22:13;;;;;;;8.25;6.40;;;;;;;16.59;60.65;100492.78;5072010;28;20384;-79
2022/05/24 09:24:47;;;;;;;9.73;5.88;;;;;;;16.46;60.50;100497.50;5072238;28;20024;-80
2022/05/24 09:27:17;;;;;;;8.35;6.75;;;;;;;16.51;61.28;100505.69;5072146;28;20060;-80
2022/05/24 09:29:56;;;;;;;10.23;7.00;;;;;;;16.53;61.42;100483.75;5075870;28;20055;-83
2022/05/24 09:32:29;;;;;;;9.05;6.45;;;;;;;16.68;61.35;100491.94;5057977;28;20033;-81
2022/05/24 09:35:12;;;;;;;13.18;6.72;;;;;;;16.76;61.08;100471.19;5075691;28;20024;-82
2022/05/24 09:37:46;;;;;;;7.38;6.38;;;;;;;16.66;59.65;100500.84;5075974;28;20031;-79
2022/05/24 09:40:22;;;;;;;7.45;6.13;;;;;;;16.56;59.55;100521.75;5075529;28;20547;-79
2022/05/24 09:42:48;;;;;;;9.15;6.45;;;;;;;16.13;60.06;100536.13;5075877;28;20024;-80
2022/05/24 09:45:17;;;;;;;11.18;6.55;;;;;;;15.73;62.46;100507.63;5075667;28;20033;-81
2022/05/24 09:47:42;;;;;;;10.73;7.15;;;;;;;16.04;62.35;100544.75;5075647;28;20036;-80
2022/05/24 09:50:37;;;;;;;7.97;6.30;;;;;;;16.60;62.46;100534.34;5075658;28;20425;-80
2022/05/24 09:53:07;;;;;;;8.40;7.18;;;;;;;17.20;59.82;100536.56;5075490;28;20150;-80
2022/05/24 09:55:33;;;;;;;9.05;6.68;;;;;;;17.36;58.30;100533.31;5075308;28;20040;-80
2022/05/24 09:58:34;;;;;;;9.35;6.65;;;;;;;17.59;59.27;100521.47;5075508;28;20060;-79
2022/05/24 10:01:35;;;;;;;6.85;5.65;;;;;;;17.91;56.39;100538.44;5075605;28;20495;-84
2022/05/24 10:04:18;;;;;;;6.03;5.03;;;;;;;17.43;56.50;100475.16;5075255;28;20025;-85
2022/05/24 10:07:01;;;;;;;6.40;4.72;;;;;;;17.50;56.12;100504.06;5075454;28;20044;-81
2022/05/24 10:09:45;;;;;;;7.75;4.63;;;;;;;17.26;56.59;100533.38;5075163;28;20028;-81
2022/05/24 10:12:21;;;;;;;7.47;4.78;;;;;;;16.55;57.81;100510.50;5075111;28;20035;-83
2022/05/24 10:14:52;;;;;;;6.82;4.30;;;;;;;16.44;58.95;100556.75;5075117;28;20024;-83
2022/05/24 10:17:17;;;;;;;;;;;;;;;16.32;59.26;100553.47;5075638;28;20445;-87
2022/05/24 10:20:03;;;;;;;4.77;3.53;;;;;;;16.18;60.44;100566.94;5074919;28;20003;-83
2022/05/24 10:22:38;;;;;;;5.80;3.47;;;;;;;16.41;60.12;100567.44;5074980;28;20286;-86
2022/05/24 10:25:35;;;;;;;5.78;3.10;;;;;;;16.55;58.84;100556.59;5056817;28;20130;-81
2022/05/24 10:28:20;;;;;;;3.95;2.40;;;;;;;16.31;57.86;100575.28;5074330;28;20041;-82
2022/05/24 10:31:24;;;;;;;3.45;1.92;;;;;;;16.48;58.34;100576.34;5074902;28;20479;-84
2022/05/24 10:40:25;;;;;;;4.63;2.30;;;;;;;16.76;58.26;100596.34;5011895;28;20971;-85
2022/05/24 10:43:13;;;;;;;5.85;2.72;;;;;;;16.41;58.51;100604.75;4935528;29;20038;-82
2022/05/24 10:45:51;;;;;;;4.28;2.30;;;;;;;16.38;59.37;100575.56;4935159;29;20083;-84
2022/05/24 10:48:29;;;;;;;3.22;2.08;;;;;;;16.91;59.45;100594.94;4935170;29;20059;-83
2022/05/24 10:51:04;;;;;;;6.50;2.50;;;;;;;17.12;57.60;100573.03;4935190;29;20091;-83
2022/05/24 10:53:45;;;;;;;4.55;2.00;;;;;;;17.53;57.85;100602.19;4935208;29;20039;-84
2022/05/24 10:56:24;;;;;;;3.63;1.63;;;;;;;17.55;55.57;100595.84;4935089;29;20046;-84
2022/05/24 10:58:51;;;;;;;4.80;1.60;;;;;;;17.83;55.28;100598.44;4935038;29;20054;-84
2022/05/24 11:01:32;;;;;;;3.55;1.60;;;;;;;18.19;56.85;100591.38;4934945;29;20035;-83
2022/05/24 11:04:16;;;;;;;2.65;1.73;;;;;;;18.01;55.28;100576.56;4935190;29;20074;-85
2022/05/24 11:07:01;;;;;;;2.13;1.70;;;;;;;17.73;54.72;100580.22;4935239;29;20047;-83
2022/05/24 11:12:26;;;;;;;4.45;2.08;;;;;;;17.04;58.19;100521.56;4992954;28;20026;-83
2022/05/24 11:15:04;;;;;;;4.00;2.20;;;;;;;17.45;58.42;100584.63;4992809;28;20035;-82
2022/05/24 11:17:30;;;;;;;5.47;2.83;;;;;;;17.24;56.12;100578.84;4992597;28;20438;-83
2022/05/24 11:19:56;;;;;;;4.15;2.50;;;;;;;17.45;58.26;100551.53;5042298;28;20048;-83
2022/05/24 11:22:48;;;;;;;6.40;3.25;;;;;;;17.65;56.01;100522.66;5074213;28;20387;-82
2022/05/24 11:25:50;;;;;;;3.95;3.03;;;;;;;18.08;54.25;100582.00;5073671;28;20033;-88
2022/05/24 11:28:35;;;;;;;5.10;3.22;;;;;;;17.34;54.85;100464.78;5073549;28;20028;-81
2022/05/24 11:31:26;;;;;;;5.50;3.22;;;;;;;17.64;59.07;100625.47;5073585;28;20031;-84
2022/05/24 11:34:31;;;;;;;4.72;2.10;;;;;;;16.42;60.87;100524.78;5073801;28;20028;-85
2022/05/24 11:37:27;;;;;;;9.20;2.90;;;;;;;15.96;64.43;100477.75;4972785;28;20122;-84
2022/05/24 11:39:55;;;;;;;5.18;2.92;;;;;;;15.85;67.02;100456.25;4899332;29;20040;-84
2022/05/24 11:42:39;;;;;;;3.30;2.60;;;;;;;16.86;65.26;100609.38;4915295;29;20036;-84
2022/05/24 11:45:29;;;;;;;4.57;2.75;;;;;;;16.88;66.11;100612.66;4899445;29;20059;-84
2022/05/24 11:48:05;;;;;;;6.13;3.38;;;;;;;16.40;67.53;100544.97;4915187;29;20044;-86
2022/05/24 11:50:51;;;;;;;4.70;3.53;;;;;;;16.58;67.13;100601.44;4915075;29;20073;-85
2022/05/24 11:53:41;;;;;;;5.82;3.10;;;;;;;16.63;63.77;100617.50;4914774;29;20088;-85
2022/05/24 11:56:21;;;;;;;4.05;2.80;;;;;;;16.28;62.22;100558.16;4914970;29;20055;-85
2022/05/24 11:58:49;;;;;;;4.32;2.40;;;;;;;15.98;63.55;100499.25;4915016;29;20050;-84
2022/05/24 12:01:15;;;;;;;3.28;2.20;;;;;;;16.69;61.36;100625.72;4915053;29;20190;-83
2022/05/24 12:09:57;;;;;;;2.97;1.92;;;;;;;17.37;58.89;100634.97;5011381;28;20040;-81
2022/05/24 12:12:28;;;;;;;4.28;2.45;;;;;;;17.35;56.89;100618.63;4994617;28;20061;-80
2022/05/24 12:15:12;;;;;;;3.95;1.90;;;;;;;17.56;55.65;100628.00;5011384;28;20148;-81
2022/05/24 12:17:38;;;;;;;3.05;1.52;;;;;;;17.65;56.73;100642.78;5081103;28;20503;-81
2022/05/24 12:20:25;;;;;;;4.88;1.58;;;;;;;17.83;56.76;100621.94;5092872;28;20390;-81
2022/05/24 12:23:06;;;;;;;2.28;1.10;;;;;;;18.34;53.38;100639.56;5093134;28;20452;-80
2022/05/24 12:26:07;;;;;;;2.67;1.00;;;;;;;18.66;54.48;100648.63;5092950;28;20028;-81
2022/05/24 12:28:34;;;;;;;4.15;1.00;;;;;;;18.67;51.32;100652.88;5093065;28;20675;-81
2022/05/24 12:31:10;;;;;;;2.65;1.10;;;;;;;18.65;51.91;100668.75;5093057;28;20058;-83
2022/05/24 12:33:50;;;;;;;4.00;1.55;;;;;;;18.62;52.38;100666.41;5093213;28;20103;-85